createdAt,value
2018-07-06T00:00:03.732Z,40.47
2018-07-06T00:00:07.943Z,40.58
2018-07-06T00:00:12.040Z,39.81
2018-07-06T00:00:16.251Z,39.79
2018-07-06T00:00:20.560Z,39.72
2018-07-06T00:00:24.665Z,39.91
2018-07-06T00:00:28.876Z,40.1
2018-07-06T00:00:33.187Z,40.47
2018-07-06T00:00:37.396Z,40.08
2018-07-06T00:00:41.709Z,40.27
2018-07-06T00:00:45.913Z,40.08
2018-07-06T00:00:50.227Z,40.17
2018-07-06T00:00:54.550Z,39.6
2018-07-06T00:00:58.766Z,39.6
2018-07-06T00:01:03.077Z,39.81
2018-07-06T00:01:06.961Z,39.81
2018-07-06T00:01:11.164Z,39.79
2018-07-06T00:01:15.491Z,39.81
2018-07-06T00:01:19.595Z,39.98
2018-07-06T00:01:23.905Z,39.79
2018-07-06T00:01:28.115Z,40.2
2018-07-06T00:01:32.209Z,39.98
2018-07-06T00:01:36.420Z,39.81
2018-07-06T00:01:40.622Z,39.41
2018-07-06T00:01:44.935Z,39.62
2018-07-06T00:01:49.247Z,39.6
2018-07-06T00:01:53.563Z,39.14
2018-07-06T00:01:57.877Z,39.14
2018-07-06T00:02:02.099Z,39.23
2018-07-06T00:02:06.314Z,39.14
2018-07-06T00:02:10.405Z,39.53
2018-07-06T00:02:14.716Z,39.53
2018-07-06T00:02:18.858Z,39.41
2018-07-06T00:02:23.167Z,39.41
2018-07-06T00:02:27.372Z,39.33
2018-07-06T00:02:31.575Z,39.22
2018-07-06T00:02:35.790Z,39.79
2018-07-06T00:02:39.988Z,39.6
2018-07-06T00:02:44.358Z,39.81
2018-07-06T00:02:48.679Z,39.91
2018-07-06T00:02:52.884Z,39.7
2018-07-06T00:02:57.195Z,39.7
2018-07-06T00:03:01.393Z,39.72
2018-07-06T00:03:05.503Z,39.7
2018-07-06T00:03:09.706Z,39.7
2018-07-06T00:03:13.927Z,39.62
2018-07-06T00:03:18.143Z,39.6
2018-07-06T00:03:22.496Z,39.6
2018-07-06T00:03:26.802Z,39.62
2018-07-06T00:03:31.110Z,39.23
2018-07-06T00:03:35.310Z,39.31
2018-07-06T00:03:39.406Z,39.23
2018-07-06T00:03:43.713Z,39.12
2018-07-06T00:03:48.023Z,39.03
2018-07-06T00:03:52.329Z,38.93
2018-07-06T00:03:56.633Z,38.76
2018-07-06T00:04:00.844Z,38.83
2018-07-06T00:04:05.053Z,39.12
2018-07-06T00:04:09.147Z,39.03
2018-07-06T00:04:13.454Z,39.14
2018-07-06T00:04:17.562Z,39.14
2018-07-06T00:04:21.563Z,39.22
2018-07-06T00:04:25.659Z,39.41
2018-07-06T00:04:29.758Z,39.14
2018-07-06T00:04:33.971Z,39.5
2018-07-06T00:04:38.174Z,39.14
2018-07-06T00:04:42.386Z,39.43
2018-07-06T00:04:46.697Z,39.53
2018-07-06T00:04:51.005Z,39.43
2018-07-06T00:04:55.208Z,39.31
2018-07-06T00:04:59.410Z,39.53
2018-07-06T00:05:03.612Z,39.6
2018-07-06T00:05:07.918Z,39.53
2018-07-06T00:05:12.238Z,39.41
2018-07-06T00:05:16.545Z,39.41
2018-07-06T00:05:20.743Z,39.5
2018-07-06T00:05:24.960Z,39.5
2018-07-06T00:05:29.268Z,39.6
2018-07-06T00:05:33.469Z,39.7
2018-07-06T00:05:37.680Z,39.79
2018-07-06T00:05:41.891Z,39.7
2018-07-06T00:05:46.196Z,40.08
2018-07-06T00:05:50.406Z,40
2018-07-06T00:05:54.715Z,40.27
2018-07-06T00:05:59.023Z,39.98
2018-07-06T00:06:03.014Z,40.2
2018-07-06T00:06:07.114Z,40.2
2018-07-06T00:06:11.320Z,40.08
2018-07-06T00:06:15.633Z,39.89
2018-07-06T00:06:19.834Z,39.81
2018-07-06T00:06:24.141Z,39.89
2018-07-06T00:06:28.236Z,40.2
2018-07-06T00:06:32.437Z,40
2018-07-06T00:06:36.638Z,39.22
2018-07-06T00:07:17.196Z,39.12
2018-07-06T00:07:21.503Z,39.23
2018-07-06T00:07:25.707Z,39.43
2018-07-06T00:07:29.915Z,39.31
2018-07-06T00:07:34.012Z,39.6
2018-07-06T00:07:38.321Z,39.22
2018-07-06T00:07:42.628Z,39.53
2018-07-06T00:07:46.721Z,39.41
2018-07-06T00:07:50.918Z,39.89
2018-07-06T00:07:55.113Z,39.6
2018-07-06T00:07:59.313Z,39.81
2018-07-06T00:08:03.309Z,39.91
2018-07-06T00:08:07.638Z,39.6
2018-07-06T00:08:11.944Z,39.91
2018-07-06T00:08:16.146Z,39.7
2018-07-06T00:08:20.350Z,39.79
2018-07-06T00:08:24.446Z,39.7
2018-07-06T00:08:28.646Z,40.08
2018-07-06T00:08:32.855Z,39.7
2018-07-06T00:08:37.052Z,39.79
2018-07-06T00:08:41.257Z,40.27
2018-07-06T00:08:45.566Z,39.81
2018-07-06T00:08:49.773Z,39.79
2018-07-06T00:08:53.871Z,39.79
2018-07-06T00:08:58.074Z,40.17
2018-07-06T00:09:02.168Z,40.29
2018-07-06T00:09:06.262Z,40.27
2018-07-06T00:09:10.251Z,40.29
2018-07-06T00:09:14.454Z,40.29
2018-07-06T00:09:18.666Z,39.98
2018-07-06T00:09:22.767Z,40.08
2018-07-06T00:09:27.078Z,40.47
2018-07-06T00:09:31.386Z,40.27
2018-07-06T00:09:35.590Z,40.77
2018-07-06T00:09:39.901Z,40.37
2018-07-06T00:09:44.212Z,40.27
2018-07-06T00:09:48.526Z,40.47
2018-07-06T00:09:52.848Z,40.39
2018-07-06T00:09:57.164Z,40.84
2018-07-06T00:10:01.370Z,40.75
2018-07-06T00:10:05.358Z,40.77
2018-07-06T00:10:09.455Z,41.13
2018-07-06T00:10:13.662Z,41.33
2018-07-06T00:10:17.862Z,41.35
2018-07-06T00:10:22.061Z,41.23
2018-07-06T00:10:26.162Z,41.23
2018-07-06T00:10:30.474Z,41.06
2018-07-06T00:10:34.785Z,41.52
2018-07-06T00:10:39.103Z,41.52
2018-07-06T00:10:43.410Z,41.61
2018-07-06T00:10:47.720Z,41.42
2018-07-06T00:10:51.979Z,41.52
2018-07-06T00:10:56.487Z,41.42
2018-07-06T00:11:00.937Z,41.54
2018-07-06T00:11:05.758Z,41.52
2018-07-06T00:11:10.021Z,41.63
2018-07-06T00:11:14.230Z,41.61
2018-07-06T00:11:18.439Z,41.8
2018-07-06T00:11:22.805Z,41.71
2018-07-06T00:11:27.113Z,42.02
2018-07-06T00:11:31.321Z,41.93
2018-07-06T00:11:35.529Z,42
2018-07-06T00:11:39.735Z,42
2018-07-06T00:11:43.820Z,42.19
2018-07-06T00:11:48.133Z,42.1
2018-07-06T00:11:52.230Z,42.38
2018-07-06T00:11:56.437Z,42.38
2018-07-06T00:12:00.758Z,42.88
2018-07-06T00:12:04.858Z,42.67
2018-07-06T00:12:08.854Z,42.88
2018-07-06T00:12:13.167Z,42.69
2018-07-06T00:12:17.467Z,42.79
2018-07-06T00:12:21.939Z,42.86
2018-07-06T00:12:26.499Z,42.67
2018-07-06T00:12:31.371Z,42.67
2018-07-06T00:12:35.567Z,42.77
2018-07-06T00:12:39.661Z,42.86
2018-07-06T00:12:43.859Z,42.69
2018-07-06T00:12:48.063Z,42.86
2018-07-06T00:12:52.270Z,43.15
2018-07-06T00:12:56.586Z,43.15
2018-07-06T00:13:00.898Z,42.98
2018-07-06T00:13:05.110Z,43.15
2018-07-06T00:13:09.322Z,43.27
2018-07-06T00:13:13.583Z,43.34
2018-07-06T00:13:17.801Z,43.24
2018-07-06T00:13:22.005Z,43.34
2018-07-06T00:13:26.108Z,43.27
2018-07-06T00:13:30.313Z,43.24
2018-07-06T00:13:34.512Z,42.96
2018-07-06T00:13:38.713Z,42.88
2018-07-06T00:13:43.023Z,42.77
2018-07-06T00:13:47.336Z,42.67
2018-07-06T00:13:51.640Z,42.67
2018-07-06T00:13:55.841Z,42.67
2018-07-06T00:14:00.158Z,42.67
2018-07-06T00:14:04.524Z,42.77
2018-07-06T00:14:08.619Z,42.57
2018-07-06T00:14:12.933Z,42.98
2018-07-06T00:14:17.246Z,43.05
2018-07-06T00:14:21.339Z,43.05
2018-07-06T00:14:25.540Z,43.07
2018-07-06T00:14:29.640Z,42.96
2018-07-06T00:14:33.947Z,43.05
2018-07-06T00:14:38.162Z,42.96
2018-07-06T00:14:42.465Z,42.98
2018-07-06T00:14:46.681Z,43.07
2018-07-06T00:14:50.890Z,42.96
2018-07-06T00:14:55.108Z,42.96
2018-07-06T00:14:59.422Z,42.96
2018-07-06T00:15:03.519Z,43.17
2018-07-06T00:15:07.614Z,43.27
2018-07-06T00:15:11.814Z,43.34
2018-07-06T00:15:16.119Z,42.96
2018-07-06T00:15:20.115Z,42.77
2018-07-06T00:15:24.423Z,43.07
2018-07-06T00:15:28.741Z,43.34
2018-07-06T00:15:32.943Z,43.17
2018-07-06T00:15:37.249Z,43.36
2018-07-06T00:15:41.560Z,43.34
2018-07-06T00:15:45.767Z,43.34
2018-07-06T00:15:50.077Z,43.53
2018-07-06T00:15:54.382Z,43.44
2018-07-06T00:15:58.736Z,43.05
2018-07-06T00:16:02.828Z,43.53
2018-07-06T00:16:06.933Z,43.34
2018-07-06T00:16:11.156Z,43.63
2018-07-06T00:16:15.354Z,43.73
2018-07-06T00:16:19.347Z,43.63
2018-07-06T00:16:23.546Z,43.34
2018-07-06T00:16:27.646Z,43.24
2018-07-06T00:16:31.954Z,43.34
2018-07-06T00:16:36.172Z,43.44
2018-07-06T00:16:40.488Z,43.53
2018-07-06T00:16:44.693Z,43.55
2018-07-06T00:16:48.896Z,43.82
2018-07-06T00:16:53.104Z,43.63
2018-07-06T00:16:57.302Z,43.82
2018-07-06T00:17:01.612Z,43.91
2018-07-06T00:17:05.919Z,43.82
2018-07-06T00:17:10.014Z,43.84
2018-07-06T00:17:14.113Z,44.01
2018-07-06T00:17:18.428Z,43.73
2018-07-06T00:17:22.738Z,43.84
2018-07-06T00:17:26.962Z,44.13
2018-07-06T00:17:31.166Z,44.01
2018-07-06T00:17:35.161Z,44.11
2018-07-06T00:17:39.053Z,44.03
2018-07-06T00:17:43.365Z,44.51
2018-07-06T00:17:47.574Z,44.3
2018-07-06T00:17:51.806Z,44.11
2018-07-06T00:17:55.896Z,44.49
2018-07-06T00:18:00.104Z,44.32
2018-07-06T00:18:04.203Z,44.42
2018-07-06T00:18:08.204Z,44.51
2018-07-06T00:18:12.524Z,44.59
2018-07-06T00:18:16.731Z,44.61
2018-07-06T00:18:20.934Z,44.3
2018-07-06T00:18:25.241Z,44.13
2018-07-06T00:18:29.341Z,44.13
2018-07-06T00:18:33.648Z,44.11
2018-07-06T00:18:37.850Z,44.2
2018-07-06T00:18:42.161Z,44.03
2018-07-06T00:18:46.473Z,44.4
2018-07-06T00:18:50.789Z,44.49
2018-07-06T00:18:55.153Z,44.4
2018-07-06T00:18:59.260Z,44.7
2018-07-06T00:19:03.463Z,44.87
2018-07-06T00:19:07.668Z,44.87
2018-07-06T00:19:11.977Z,44.7
2018-07-06T00:19:16.293Z,44.8
2018-07-06T00:19:20.390Z,44.49
2018-07-06T00:19:24.590Z,44.9
2018-07-06T00:19:28.467Z,44.9
2018-07-06T00:19:32.566Z,44.68
2018-07-06T00:19:36.776Z,44.68
2018-07-06T00:19:40.979Z,44.61
2018-07-06T00:19:45.287Z,44.59
2018-07-06T00:19:49.597Z,44.49
2018-07-06T00:19:53.906Z,44.68
2018-07-06T00:19:58.107Z,44.68
2018-07-06T00:20:02.210Z,44.49
2018-07-06T00:20:06.337Z,44.49
2018-07-06T00:20:10.678Z,44.61
2018-07-06T00:20:14.987Z,44.78
2018-07-06T00:20:19.361Z,44.9
2018-07-06T00:20:23.618Z,44.78
2018-07-06T00:20:27.816Z,44.78
2018-07-06T00:20:32.017Z,44.97
2018-07-06T00:20:36.221Z,45
2018-07-06T00:20:40.527Z,44.59
2018-07-06T00:20:44.836Z,44.7
2018-07-06T00:20:49.144Z,44.68
2018-07-06T00:20:53.345Z,44.8
2018-07-06T00:20:57.655Z,44.68
2018-07-06T00:21:01.873Z,44.59
2018-07-06T00:21:06.059Z,44.78
2018-07-06T00:21:10.370Z,45.16
2018-07-06T00:21:14.460Z,45
2018-07-06T00:21:18.557Z,44.97
2018-07-06T00:21:22.757Z,45.09
2018-07-06T00:21:27.074Z,45.26
2018-07-06T00:21:31.172Z,45.26
2018-07-06T00:21:35.375Z,45.36
2018-07-06T00:21:39.575Z,45.28
2018-07-06T00:21:43.780Z,45.18
2018-07-06T00:21:48.090Z,44.78
2018-07-06T00:21:52.294Z,44.8
2018-07-06T00:21:56.608Z,44.68
2018-07-06T00:22:00.916Z,44.87
2018-07-06T00:22:05.125Z,44.97
2018-07-06T00:22:09.120Z,44.97
2018-07-06T00:22:13.438Z,45.16
2018-07-06T00:22:17.639Z,45.36
2018-07-06T00:22:21.952Z,45.26
2018-07-06T00:22:26.258Z,45.16
2018-07-06T00:22:30.358Z,45.09
2018-07-06T00:22:34.452Z,45.09
2018-07-06T00:22:38.756Z,45.16
2018-07-06T00:22:42.964Z,45.09
2018-07-06T00:22:47.277Z,45.07
2018-07-06T00:22:51.528Z,45.07
2018-07-06T00:22:55.846Z,45.16
2018-07-06T00:23:00.150Z,45.09
2018-07-06T00:23:04.356Z,44.97
2018-07-06T00:23:08.561Z,45.36
2018-07-06T00:23:12.867Z,45.18
2018-07-06T00:23:17.125Z,45.36
2018-07-06T00:23:21.433Z,45.26
2018-07-06T00:23:25.536Z,45.37
2018-07-06T00:23:29.857Z,45.45
2018-07-06T00:23:34.068Z,45.07
2018-07-06T00:23:38.377Z,45.16
2018-07-06T00:23:42.574Z,44.97
2018-07-06T00:23:46.790Z,45.36
2018-07-06T00:23:51.094Z,45.45
2018-07-06T00:23:55.198Z,45.47
2018-07-06T00:23:59.508Z,45.36
2018-07-06T00:24:03.873Z,45.36
2018-07-06T00:24:08.069Z,45.26
2018-07-06T00:24:12.269Z,45.28
2018-07-06T00:24:16.470Z,45.36
2018-07-06T00:24:20.780Z,45.36
2018-07-06T00:24:24.988Z,45.54
2018-07-06T00:24:29.193Z,45.67
2018-07-06T00:24:33.400Z,45.54
2018-07-06T00:24:37.604Z,45.64
2018-07-06T00:24:41.817Z,45.64
2018-07-06T00:24:46.131Z,45.74
2018-07-06T00:24:50.341Z,45.74
2018-07-06T00:24:54.546Z,45.64
2018-07-06T00:24:58.748Z,45.76
2018-07-06T00:25:02.964Z,45.74
2018-07-06T00:25:06.961Z,45.67
2018-07-06T00:25:11.161Z,45.93
2018-07-06T00:25:15.464Z,45.93
2018-07-06T00:25:19.717Z,45.74
2018-07-06T00:25:23.930Z,45.74
2018-07-06T00:25:28.231Z,45.74
2018-07-06T00:25:32.435Z,45.83
2018-07-06T00:25:36.644Z,46.03
2018-07-06T00:25:40.846Z,46.22
2018-07-06T00:25:45.039Z,46.22
2018-07-06T00:25:49.133Z,45.93
2018-07-06T00:25:53.446Z,46.41
2018-07-06T00:25:57.657Z,46.5
2018-07-06T00:26:01.968Z,46.43
2018-07-06T00:26:06.072Z,46.12
2018-07-06T00:26:10.283Z,45.67
2018-07-06T00:26:14.479Z,45.86
2018-07-06T00:26:18.793Z,45.64
2018-07-06T00:26:22.887Z,45.26
2018-07-06T00:26:26.983Z,45.54
2018-07-06T00:26:31.192Z,45.57
2018-07-06T00:26:35.504Z,45.36
2018-07-06T00:26:39.719Z,45.26
2018-07-06T00:26:43.857Z,45.64
2018-07-06T00:26:47.849Z,45.45
2018-07-06T00:26:52.060Z,45.67
2018-07-06T00:26:56.377Z,45.67
2018-07-06T00:27:00.692Z,45.64
2018-07-06T00:27:04.899Z,45.74
2018-07-06T00:27:08.997Z,45.57
2018-07-06T00:27:13.309Z,45.54
2018-07-06T00:27:17.617Z,45.45
2018-07-06T00:27:21.933Z,45.57
2018-07-06T00:27:26.243Z,45.36
2018-07-06T00:27:30.550Z,45.45
2018-07-06T00:27:34.755Z,45.74
2018-07-06T00:27:38.961Z,45.67
2018-07-06T00:27:43.272Z,45.64
2018-07-06T00:27:47.478Z,45.76
2018-07-06T00:27:51.787Z,45.54
2018-07-06T00:27:56.102Z,45.76
2018-07-06T00:28:00.411Z,45.54
2018-07-06T00:28:04.513Z,45.37
2018-07-06T00:28:08.605Z,45.37
2018-07-06T00:28:12.909Z,45.36
2018-07-06T00:28:17.001Z,45.37
2018-07-06T00:28:21.098Z,45.54
2018-07-06T00:28:25.416Z,45.45
2018-07-06T00:28:29.723Z,45.54
2018-07-06T00:28:33.823Z,45.54
2018-07-06T00:28:38.143Z,45.54
2018-07-06T00:28:42.455Z,45.47
2018-07-06T00:28:46.766Z,45.74
2018-07-06T00:28:51.079Z,45.64
2018-07-06T00:28:55.171Z,45.45
2018-07-06T00:28:59.383Z,45.64
2018-07-06T00:29:03.601Z,45.47
2018-07-06T00:29:07.813Z,45.54
2018-07-06T00:29:11.915Z,45.36
2018-07-06T00:29:16.121Z,45.36
2018-07-06T00:29:20.428Z,45.36
2018-07-06T00:29:24.522Z,45.64
2018-07-06T00:29:28.513Z,45.54
2018-07-06T00:29:32.610Z,45.54
2018-07-06T00:29:36.922Z,45.54
2018-07-06T00:29:41.234Z,45.54
2018-07-06T00:29:45.551Z,45.37
2018-07-06T00:29:49.650Z,45.36
2018-07-06T00:29:53.972Z,45.67
2018-07-06T00:29:58.283Z,45.47
2018-07-06T00:30:02.380Z,45.45
2018-07-06T00:30:06.591Z,45.47
2018-07-06T00:30:10.691Z,45.54
2018-07-06T00:30:14.894Z,45.45
2018-07-06T00:30:19.002Z,45.28
2018-07-06T00:30:23.313Z,45.57
2018-07-06T00:30:27.627Z,45.57
2018-07-06T00:30:31.823Z,45.74
2018-07-06T00:30:36.132Z,45.74
2018-07-06T00:30:40.441Z,45.83
2018-07-06T00:30:44.760Z,45.93
2018-07-06T00:30:48.875Z,46.24
2018-07-06T00:30:53.181Z,46.24
2018-07-06T00:30:57.495Z,46.03
2018-07-06T00:31:01.759Z,46.14
2018-07-06T00:31:05.969Z,46.41
2018-07-06T00:31:10.169Z,46.43
2018-07-06T00:31:14.481Z,46.5
2018-07-06T00:31:18.786Z,46.5
2018-07-06T00:31:22.881Z,46.41
2018-07-06T00:31:27.091Z,46.41
2018-07-06T00:31:31.405Z,46.24
2018-07-06T00:31:35.611Z,46.24
2018-07-06T00:31:39.817Z,46.34
2018-07-06T00:31:44.127Z,46.03
2018-07-06T00:31:48.433Z,46.24
2018-07-06T00:31:52.745Z,46.34
2018-07-06T00:31:57.055Z,46.41
2018-07-06T00:32:01.268Z,46.24
2018-07-06T00:32:05.258Z,46.34
2018-07-06T00:32:09.459Z,46.53
2018-07-06T00:32:13.782Z,46.03
2018-07-06T00:32:18.098Z,46.24
2018-07-06T00:32:22.299Z,46.24
2018-07-06T00:32:26.297Z,46.34
2018-07-06T00:32:30.285Z,46.14
2018-07-06T00:32:34.608Z,46.62
2018-07-06T00:32:38.814Z,46.53
2018-07-06T00:32:43.132Z,46.24
2018-07-06T00:32:47.441Z,46.6
2018-07-06T00:32:51.436Z,46.6
2018-07-06T00:32:55.536Z,46.53
2018-07-06T00:32:59.634Z,46.5
2018-07-06T00:33:03.846Z,46.53
2018-07-06T00:33:08.053Z,46.24
2018-07-06T00:33:12.259Z,46.34
2018-07-06T00:33:16.470Z,46.22
2018-07-06T00:33:20.565Z,46.62
2018-07-06T00:33:24.771Z,46.6
2018-07-06T00:33:28.978Z,46.43
2018-07-06T00:33:33.081Z,46.6
2018-07-06T00:33:37.335Z,46.62
2018-07-06T00:33:41.540Z,46.62
2018-07-06T00:33:45.848Z,46.91
2018-07-06T00:33:50.161Z,46.62
2018-07-06T00:33:54.369Z,46.53
2018-07-06T00:33:58.581Z,46.53
2018-07-06T00:34:03.003Z,46.7
2018-07-06T00:34:07.318Z,46.89
2018-07-06T00:34:11.516Z,46.72
2018-07-06T00:34:15.730Z,46.34
2018-07-06T00:34:20.043Z,46.72
2018-07-06T00:34:24.361Z,46.6
2018-07-06T00:34:28.570Z,46.81
2018-07-06T00:34:32.887Z,47.08
2018-07-06T00:34:37.209Z,47.1
2018-07-06T00:34:41.520Z,47.46
2018-07-06T00:34:45.827Z,47.2
2018-07-06T00:34:50.136Z,46.98
2018-07-06T00:34:54.233Z,47.08
2018-07-06T00:34:58.542Z,47.1
2018-07-06T00:35:02.424Z,47.01
2018-07-06T00:35:06.525Z,47.1
2018-07-06T00:35:10.834Z,47.3
2018-07-06T00:35:15.033Z,47.77
2018-07-06T00:35:19.336Z,47.58
2018-07-06T00:35:23.544Z,47.49
2018-07-06T00:35:27.760Z,47.3
2018-07-06T00:35:31.853Z,47.39
2018-07-06T00:35:36.165Z,47.49
2018-07-06T00:35:40.521Z,47.49
2018-07-06T00:35:44.828Z,47.68
2018-07-06T00:35:49.029Z,47.39
2018-07-06T00:35:53.344Z,47.39
2018-07-06T00:35:57.586Z,47.56
2018-07-06T00:36:01.898Z,47.68
2018-07-06T00:36:06.098Z,48.07
2018-07-06T00:36:10.201Z,47.94
2018-07-06T00:36:14.401Z,47.68
2018-07-06T00:36:18.713Z,47.68
2018-07-06T00:36:23.024Z,47.87
2018-07-06T00:36:27.123Z,47.97
2018-07-06T00:36:31.434Z,47.87
2018-07-06T00:36:35.641Z,48.16
2018-07-06T00:36:39.961Z,47.97
2018-07-06T00:36:44.576Z,48.25
2018-07-06T00:36:49.526Z,48.35
2018-07-06T00:36:54.172Z,48.44
2018-07-06T00:36:58.376Z,48.54
2018-07-06T00:37:02.705Z,48.64
2018-07-06T00:37:07.024Z,48.25
2018-07-06T00:37:11.339Z,48.35
2018-07-06T00:37:15.548Z,48.25
2018-07-06T00:37:19.862Z,48.64
2018-07-06T00:37:24.058Z,48.54
2018-07-06T00:37:28.268Z,48.44
2018-07-06T00:37:32.468Z,48.64
2018-07-06T00:37:36.679Z,48.44
2018-07-06T00:37:40.881Z,48.64
2018-07-06T00:37:45.198Z,48.64
2018-07-06T00:37:49.511Z,48.64
2018-07-06T00:37:53.728Z,48.54
2018-07-06T00:37:58.049Z,48.54
2018-07-06T00:38:02.257Z,48.61
2018-07-06T00:38:06.248Z,48.64
2018-07-06T00:38:10.343Z,48.74
2018-07-06T00:38:14.651Z,48.54
2018-07-06T00:38:18.756Z,48.35
2018-07-06T00:38:22.961Z,48.83
2018-07-06T00:38:27.169Z,48.71
2018-07-06T00:38:31.485Z,49.02
2018-07-06T00:38:35.697Z,48.83
2018-07-06T00:38:40.012Z,48.93
2018-07-06T00:38:44.225Z,49.1
2018-07-06T00:38:48.538Z,48.93
2018-07-06T00:38:52.634Z,48.93
2018-07-06T00:38:56.939Z,49.02
2018-07-06T00:39:01.141Z,49.12
2018-07-06T00:39:05.235Z,49.38
2018-07-06T00:39:09.555Z,49.21
2018-07-06T00:39:13.913Z,49.48
2018-07-06T00:39:18.233Z,49.41
2018-07-06T00:39:22.544Z,49.5
2018-07-06T00:39:26.529Z,49.48
2018-07-06T00:39:30.732Z,49.21
2018-07-06T00:39:35.042Z,49.67
2018-07-06T00:39:39.244Z,49.31
2018-07-06T00:39:43.462Z,49.5
2018-07-06T00:39:47.770Z,49.57
2018-07-06T00:39:52.079Z,49.69
2018-07-06T00:39:56.406Z,49.69
2018-07-06T00:40:00.742Z,49.79
2018-07-06T00:40:04.890Z,49.5
2018-07-06T00:40:09.100Z,49.41
2018-07-06T00:40:13.413Z,49.79
2018-07-06T00:40:17.726Z,49.76
2018-07-06T00:40:21.931Z,50.17
2018-07-06T00:40:26.244Z,50.24
2018-07-06T00:40:30.448Z,50.17
2018-07-06T00:40:34.435Z,49.88
2018-07-06T00:40:38.745Z,49.79
2018-07-06T00:40:42.952Z,49.41
2018-07-06T00:40:47.156Z,49.6
2018-07-06T00:40:51.470Z,49.6
2018-07-06T00:40:55.779Z,49.69
2018-07-06T00:41:00.097Z,49.5
2018-07-06T00:41:04.084Z,49.76
2018-07-06T00:41:08.397Z,49.6
2018-07-06T00:41:12.711Z,49.5
2018-07-06T00:41:17.018Z,50.17
2018-07-06T00:41:21.331Z,50.24
2018-07-06T00:41:25.647Z,49.6
2018-07-06T00:41:29.849Z,49.69
2018-07-06T00:41:34.155Z,49.88
2018-07-06T00:41:38.251Z,49.96
2018-07-06T00:41:42.559Z,49.88
2018-07-06T00:41:46.556Z,49.98
2018-07-06T00:41:50.864Z,49.6
2018-07-06T00:41:55.070Z,49.19
2018-07-06T00:41:59.319Z,50.27
2018-07-06T00:42:03.528Z,50.17
2018-07-06T00:42:07.832Z,49.6
2018-07-06T00:42:11.717Z,50.17
2018-07-06T00:42:16.028Z,50.17
2018-07-06T00:42:20.342Z,50.17
2018-07-06T00:42:24.437Z,50.27
2018-07-06T00:42:28.742Z,49.5
2018-07-06T00:42:32.950Z,49.69
2018-07-06T00:42:37.156Z,49.88
2018-07-06T00:42:41.463Z,50.15
2018-07-06T00:42:45.667Z,50.37
2018-07-06T00:42:49.880Z,50.34
2018-07-06T00:42:54.205Z,49.98
2018-07-06T00:42:58.514Z,49.98
2018-07-06T00:43:02.504Z,50.34
2018-07-06T00:43:06.598Z,49.98
2018-07-06T00:43:10.800Z,50.37
2018-07-06T00:43:14.999Z,49.96
2018-07-06T00:43:19.202Z,50.17
2018-07-06T00:43:23.556Z,49.88
2018-07-06T00:43:27.763Z,49.98
2018-07-06T00:43:31.855Z,50.17
2018-07-06T00:43:36.222Z,50.27
2018-07-06T00:43:40.530Z,50.17
2018-07-06T00:43:44.744Z,50.17
2018-07-06T00:43:48.839Z,50.08
2018-07-06T00:43:53.150Z,50.17
2018-07-06T00:43:57.462Z,50.17
2018-07-06T00:44:01.672Z,50.56
2018-07-06T00:44:05.661Z,50.65
2018-07-06T00:44:09.986Z,50.65
2018-07-06T00:44:14.181Z,50.53
2018-07-06T00:44:18.491Z,50.94
2018-07-06T00:44:22.807Z,50.65
2018-07-06T00:44:26.908Z,50.84
2018-07-06T00:44:31.002Z,50.65
2018-07-06T00:44:35.200Z,50.75
2018-07-06T00:44:39.406Z,50.84
2018-07-06T00:44:43.501Z,51.04
2018-07-06T00:44:47.752Z,50.84
2018-07-06T00:44:51.953Z,51.2
2018-07-06T00:44:56.152Z,51.49
2018-07-06T00:45:00.466Z,51.71
2018-07-06T00:45:04.460Z,51.42
2018-07-06T00:45:08.555Z,51.14
2018-07-06T00:45:12.653Z,51.14
2018-07-06T00:45:16.750Z,51.42
2018-07-06T00:45:21.062Z,51.42
2018-07-06T00:45:25.382Z,51.42
2018-07-06T00:45:29.474Z,51.32
2018-07-06T00:45:33.677Z,51.23
2018-07-06T00:45:38.044Z,51.42
2018-07-06T00:45:42.353Z,51.51
2018-07-06T00:45:46.659Z,51.42
2018-07-06T00:45:50.969Z,51.23
2018-07-06T00:45:55.293Z,51.23
2018-07-06T00:45:59.500Z,51.14
2018-07-06T00:46:03.705Z,51.32
2018-07-06T00:46:07.802Z,51.32
2018-07-06T00:46:11.903Z,51.51
2018-07-06T00:46:16.217Z,51.51
2018-07-06T00:46:20.416Z,51.51
2018-07-06T00:46:24.623Z,51.71
2018-07-06T00:46:28.929Z,51.71
2018-07-06T00:46:32.920Z,51.71
2018-07-06T00:46:37.238Z,52
2018-07-06T00:46:41.445Z,51.51
2018-07-06T00:46:45.764Z,52
2018-07-06T00:46:49.862Z,52
2018-07-06T00:46:54.167Z,52.28
2018-07-06T00:46:58.368Z,52.28
2018-07-06T00:47:02.715Z,52.28
2018-07-06T00:47:07.029Z,52.19
2018-07-06T00:47:11.338Z,52
2018-07-06T00:47:15.544Z,52.28
2018-07-06T00:47:19.850Z,52.19
2018-07-06T00:47:24.074Z,52.28
2018-07-06T00:47:28.393Z,52.38
2018-07-06T00:47:32.704Z,52.48
2018-07-06T00:47:36.802Z,52.48
2018-07-06T00:47:41.117Z,52.48
2018-07-06T00:47:45.219Z,52.57
2018-07-06T00:47:49.431Z,52.67
2018-07-06T00:47:53.635Z,52.67
2018-07-06T00:47:57.840Z,53.24
2018-07-06T00:48:02.047Z,53.05
2018-07-06T00:48:06.251Z,52.95
2018-07-06T00:48:10.348Z,53.05
2018-07-06T00:48:14.559Z,53.05
2018-07-06T00:48:18.766Z,52.95
2018-07-06T00:48:22.861Z,53.15
2018-07-06T00:48:27.172Z,52.95
2018-07-06T00:48:31.478Z,53.05
2018-07-06T00:48:35.576Z,53.05
2018-07-06T00:48:39.804Z,53.15
2018-07-06T00:48:44.208Z,53.05
2018-07-06T00:48:48.504Z,53.24
2018-07-06T00:48:53.185Z,53.34
2018-07-06T00:48:57.926Z,53.34
2018-07-06T00:49:02.133Z,53.24
2018-07-06T00:49:06.128Z,53.24
2018-07-06T00:49:10.126Z,53.34
2018-07-06T00:49:14.324Z,53.44
2018-07-06T00:49:18.640Z,53.15
2018-07-06T00:49:22.838Z,53.24
2018-07-06T00:49:26.823Z,53.24
2018-07-06T00:49:30.929Z,53.24
2018-07-06T00:49:35.131Z,53.34
2018-07-06T00:49:39.231Z,53.63
2018-07-06T00:49:43.437Z,54.01
2018-07-06T00:49:47.647Z,53.53
2018-07-06T00:49:51.852Z,53.34
2018-07-06T00:49:56.170Z,53.34
2018-07-06T00:50:00.307Z,53.34
2018-07-06T00:50:04.520Z,53.53
2018-07-06T00:50:08.406Z,53.34
2018-07-06T00:50:12.612Z,53.91
2018-07-06T00:50:16.919Z,53.72
2018-07-06T00:50:21.125Z,53.91
2018-07-06T00:50:25.443Z,53.91
2018-07-06T00:50:29.643Z,53.82
2018-07-06T00:50:33.736Z,53.72
2018-07-06T00:50:37.840Z,53.82
2018-07-06T00:50:42.046Z,54.11
2018-07-06T00:50:46.035Z,53.91
2018-07-06T00:50:50.387Z,54.11
2018-07-06T00:50:54.592Z,54.11
2018-07-06T00:50:58.905Z,54.21
2018-07-06T00:51:03.018Z,54.21
2018-07-06T00:51:07.228Z,54.11
2018-07-06T00:51:11.547Z,53.91
2018-07-06T00:51:15.856Z,54.11
2018-07-06T00:51:20.162Z,54.01
2018-07-06T00:51:24.487Z,54.3
2018-07-06T00:51:28.696Z,54.21
2018-07-06T00:51:32.898Z,54.3
2018-07-06T00:51:37.206Z,54.58
2018-07-06T00:51:41.415Z,54.39
2018-07-06T00:51:45.727Z,54.78
2018-07-06T00:51:50.052Z,54.49
2018-07-06T00:51:54.255Z,54.68
2018-07-06T00:51:58.574Z,54.58
2018-07-06T00:52:02.776Z,54.49
2018-07-06T00:52:06.870Z,54.78
2018-07-06T00:52:10.966Z,55.26
2018-07-06T00:52:15.170Z,55.16
2018-07-06T00:52:19.487Z,55.16
2018-07-06T00:52:23.581Z,55.45
2018-07-06T00:52:27.782Z,55.45
2018-07-06T00:52:31.983Z,55.55
2018-07-06T00:52:36.210Z,55.35
2018-07-06T00:52:40.421Z,54.97
2018-07-06T00:52:44.737Z,55.07
2018-07-06T00:52:48.944Z,55.16
2018-07-06T00:52:53.145Z,55.26
2018-07-06T00:52:57.459Z,55.16
2018-07-06T00:53:01.769Z,55.26
2018-07-06T00:53:05.891Z,55.35
2018-07-06T00:53:09.665Z,55.35
2018-07-06T00:53:13.880Z,55.93
2018-07-06T00:53:17.870Z,55.93
2018-07-06T00:53:22.179Z,55.93
2018-07-06T00:53:26.278Z,55.64
2018-07-06T00:53:30.486Z,55.64
2018-07-06T00:53:34.791Z,55.45
2018-07-06T00:53:38.993Z,55.74
2018-07-06T00:53:43.301Z,56.31
2018-07-06T00:53:47.396Z,56.12
2018-07-06T00:53:51.711Z,56.12
2018-07-06T00:53:56.017Z,56.22
2018-07-06T00:54:00.325Z,55.83
2018-07-06T00:54:04.535Z,55.93
2018-07-06T00:54:08.626Z,56.02
2018-07-06T00:54:12.941Z,55.93
2018-07-06T00:54:17.152Z,55.93
2018-07-06T00:54:21.363Z,56.02
2018-07-06T00:54:25.463Z,56.31
2018-07-06T00:54:29.460Z,56.31
2018-07-06T00:54:33.666Z,56.02
2018-07-06T00:54:37.872Z,56.31
2018-07-06T00:54:42.078Z,56.7
2018-07-06T00:54:46.484Z,56.7
2018-07-06T00:54:51.160Z,56.51
2018-07-06T00:54:56.063Z,56.7
2018-07-06T00:55:00.529Z,56.89
2018-07-06T00:55:04.690Z,57.08
2018-07-06T00:55:08.679Z,56.7
2018-07-06T00:55:12.881Z,56.89
2018-07-06T00:55:17.196Z,56.89
2018-07-06T00:55:21.402Z,57.28